sensor_id;sensor_type;location;lat;lon;timestamp;P1;durP1;ratioP1;P2;durP2;ratioP2
76667;SDS011;65585;51.166;16.922;2024-02-16T00:01:32;33.22;;;17.33;;
76667;SDS011;65585;51.166;16.922;2024-02-16T00:03:58;28.33;;;15.20;;
76667;SDS011;65585;51.166;16.922;2024-02-16T00:06:24;27.95;;;15.52;;
76667;SDS011;65585;51.166;16.922;2024-02-16T00:08:50;32.10;;;15.82;;
76667;SDS011;65585;51.166;16.922;2024-02-16T00:11:17;32.13;;;15.23;;
76667;SDS011;65585;51.166;16.922;2024-02-16T00:13:42;28.77;;;15.48;;
76667;SDS011;65585;51.166;16.922;2024-02-16T00:16:08;29.63;;;15.32;;
76667;SDS011;65585;51.166;16.922;2024-02-16T00:18:34;31.63;;;15.27;;
76667;SDS011;65585;51.166;16.922;2024-02-16T00:21:01;28.63;;;14.07;;
76667;SDS011;65585;51.166;16.922;2024-02-16T00:23:27;27.23;;;13.75;;
76667;SDS011;65585;51.166;16.922;2024-02-16T00:25:53;25.13;;;14.20;;
76667;SDS011;65585;51.166;16.922;2024-02-16T00:28:19;24.55;;;14.57;;
76667;SDS011;65585;51.166;16.922;2024-02-16T00:30:45;28.52;;;14.85;;
76667;SDS011;65585;51.166;16.922;2024-02-16T00:33:12;26.45;;;13.93;;
76667;SDS011;65585;51.166;16.922;2024-02-16T00:35:38;27.90;;;13.73;;
76667;SDS011;65585;51.166;16.922;2024-02-16T00:38:04;26.42;;;13.88;;
76667;SDS011;65585;51.166;16.922;2024-02-16T00:40:30;23.60;;;13.02;;
76667;SDS011;65585;51.166;16.922;2024-02-16T00:42:56;25.15;;;13.85;;
76667;SDS011;65585;51.166;16.922;2024-02-16T00:45:22;23.83;;;13.30;;
76667;SDS011;65585;51.166;16.922;2024-02-16T00:47:48;24.17;;;13.75;;
76667;SDS011;65585;51.166;16.922;2024-02-16T00:50:14;23.17;;;13.18;;
76667;SDS011;65585;51.166;16.922;2024-02-16T00:52:40;24.10;;;13.48;;
76667;SDS011;65585;51.166;16.922;2024-02-16T00:55:07;23.85;;;13.68;;
76667;SDS011;65585;51.166;16.922;2024-02-16T00:57:33;24.30;;;13.55;;
76667;SDS011;65585;51.166;16.922;2024-02-16T01:00:00;25.70;;;13.60;;
76667;SDS011;65585;51.166;16.922;2024-02-16T01:02:26;23.25;;;12.45;;
76667;SDS011;65585;51.166;16.922;2024-02-16T01:04:52;24.10;;;14.20;;
76667;SDS011;65585;51.166;16.922;2024-02-16T01:07:20;25.02;;;14.73;;
76667;SDS011;65585;51.166;16.922;2024-02-16T01:09:46;22.77;;;12.45;;
76667;SDS011;65585;51.166;16.922;2024-02-16T01:12:12;21.67;;;13.18;;
76667;SDS011;65585;51.166;16.922;2024-02-16T01:14:38;23.70;;;13.43;;
76667;SDS011;65585;51.166;16.922;2024-02-16T01:17:04;23.55;;;13.18;;
76667;SDS011;65585;51.166;16.922;2024-02-16T01:19:33;24.77;;;13.25;;
76667;SDS011;65585;51.166;16.922;2024-02-16T01:21:59;26.15;;;13.52;;
76667;SDS011;65585;51.166;16.922;2024-02-16T01:24:26;23.52;;;13.07;;
76667;SDS011;65585;51.166;16.922;2024-02-16T01:26:52;23.83;;;13.27;;
76667;SDS011;65585;51.166;16.922;2024-02-16T01:29:18;26.73;;;14.98;;
76667;SDS011;65585;51.166;16.922;2024-02-16T01:31:44;24.42;;;13.98;;
76667;SDS011;65585;51.166;16.922;2024-02-16T01:34:11;24.10;;;13.40;;
76667;SDS011;65585;51.166;16.922;2024-02-16T01:36:36;28.33;;;14.50;;
76667;SDS011;65585;51.166;16.922;2024-02-16T01:39:04;30.30;;;15.48;;
76667;SDS011;65585;51.166;16.922;2024-02-16T01:41:34;29.45;;;14.10;;
76667;SDS011;65585;51.166;16.922;2024-02-16T01:44:04;28.08;;;14.07;;
76667;SDS011;65585;51.166;16.922;2024-02-16T01:46:31;26.20;;;14.38;;
76667;SDS011;65585;51.166;16.922;2024-02-16T01:48:57;28.17;;;13.50;;
76667;SDS011;65585;51.166;16.922;2024-02-16T01:51:23;29.90;;;14.98;;
76667;SDS011;65585;51.166;16.922;2024-02-16T01:56:17;24.73;;;12.43;;
76667;SDS011;65585;51.166;16.922;2024-02-16T01:58:46;24.63;;;13.18;;
76667;SDS011;65585;51.166;16.922;2024-02-16T02:01:12;27.42;;;13.23;;
76667;SDS011;65585;51.166;16.922;2024-02-16T02:03:38;25.65;;;14.00;;
76667;SDS011;65585;51.166;16.922;2024-02-16T02:06:04;24.52;;;15.00;;
76667;SDS011;65585;51.166;16.922;2024-02-16T02:08:30;26.98;;;13.63;;
76667;SDS011;65585;51.166;16.922;2024-02-16T02:10:56;24.80;;;14.98;;
76667;SDS011;65585;51.166;16.922;2024-02-16T02:13:22;24.38;;;13.15;;
76667;SDS011;65585;51.166;16.922;2024-02-16T02:15:48;24.85;;;13.32;;
76667;SDS011;65585;51.166;16.922;2024-02-16T02:18:14;26.42;;;13.10;;
76667;SDS011;65585;51.166;16.922;2024-02-16T02:20:40;21.90;;;12.45;;
76667;SDS011;65585;51.166;16.922;2024-02-16T02:23:06;24.33;;;12.93;;
76667;SDS011;65585;51.166;16.922;2024-02-16T02:25:32;25.45;;;12.75;;
76667;SDS011;65585;51.166;16.922;2024-02-16T02:27:59;24.42;;;13.02;;
76667;SDS011;65585;51.166;16.922;2024-02-16T02:30:25;27.23;;;13.82;;
76667;SDS011;65585;51.166;16.922;2024-02-16T02:32:51;29.73;;;14.45;;
76667;SDS011;65585;51.166;16.922;2024-02-16T02:35:17;26.42;;;13.65;;
76667;SDS011;65585;51.166;16.922;2024-02-16T02:37:44;26.25;;;12.85;;
76667;SDS011;65585;51.166;16.922;2024-02-16T02:40:10;32.20;;;13.70;;
76667;SDS011;65585;51.166;16.922;2024-02-16T02:42:36;30.00;;;13.85;;
76667;SDS011;65585;51.166;16.922;2024-02-16T02:45:02;24.58;;;12.23;;
76667;SDS011;65585;51.166;16.922;2024-02-16T02:47:29;23.92;;;11.85;;
76667;SDS011;65585;51.166;16.922;2024-02-16T02:49:55;21.58;;;12.30;;
76667;SDS011;65585;51.166;16.922;2024-02-16T02:52:21;26.40;;;12.40;;
76667;SDS011;65585;51.166;16.922;2024-02-16T02:54:47;27.60;;;12.82;;
76667;SDS011;65585;51.166;16.922;2024-02-16T02:57:13;23.20;;;12.82;;
76667;SDS011;65585;51.166;16.922;2024-02-16T02:59:39;24.58;;;11.93;;
76667;SDS011;65585;51.166;16.922;2024-02-16T03:02:05;23.63;;;11.00;;
76667;SDS011;65585;51.166;16.922;2024-02-16T03:04:31;22.73;;;12.23;;
76667;SDS011;65585;51.166;16.922;2024-02-16T03:06:57;24.50;;;12.23;;
76667;SDS011;65585;51.166;16.922;2024-02-16T03:09:23;22.85;;;11.68;;
76667;SDS011;65585;51.166;16.922;2024-02-16T03:11:49;23.55;;;11.13;;
76667;SDS011;65585;51.166;16.922;2024-02-16T03:14:16;23.17;;;11.68;;
76667;SDS011;65585;51.166;16.922;2024-02-16T03:16:43;23.17;;;11.65;;
76667;SDS011;65585;51.166;16.922;2024-02-16T03:19:08;25.33;;;12.75;;
76667;SDS011;65585;51.166;16.922;2024-02-16T03:21:35;25.33;;;11.38;;
76667;SDS011;65585;51.166;16.922;2024-02-16T03:24:01;21.58;;;11.52;;
76667;SDS011;65585;51.166;16.922;2024-02-16T03:26:29;17.50;;;10.10;;
76667;SDS011;65585;51.166;16.922;2024-02-16T03:28:56;21.08;;;11.07;;
76667;SDS011;65585;51.166;16.922;2024-02-16T03:31:22;21.65;;;9.90;;
76667;SDS011;65585;51.166;16.922;2024-02-16T03:33:49;19.05;;;10.50;;
76667;SDS011;65585;51.166;16.922;2024-02-16T03:36:17;18.48;;;9.98;;
76667;SDS011;65585;51.166;16.922;2024-02-16T03:38:44;18.65;;;10.30;;
76667;SDS011;65585;51.166;16.922;2024-02-16T03:41:17;18.05;;;9.77;;
76667;SDS011;65585;51.166;16.922;2024-02-16T03:43:44;18.58;;;9.98;;
76667;SDS011;65585;51.166;16.922;2024-02-16T03:46:10;20.73;;;10.75;;
76667;SDS011;65585;51.166;16.922;2024-02-16T03:48:36;18.42;;;9.80;;
76667;SDS011;65585;51.166;16.922;2024-02-16T03:51:02;19.85;;;10.30;;
76667;SDS011;65585;51.166;16.922;2024-02-16T03:53:29;18.10;;;9.60;;
76667;SDS011;65585;51.166;16.922;2024-02-16T03:55:55;23.17;;;11.35;;
76667;SDS011;65585;51.166;16.922;2024-02-16T03:58:21;21.27;;;10.35;;
76667;SDS011;65585;51.166;16.922;2024-02-16T04:00:48;23.52;;;10.55;;
76667;SDS011;65585;51.166;16.922;2024-02-16T04:03:14;20.98;;;10.55;;
76667;SDS011;65585;51.166;16.922;2024-02-16T04:05:41;18.55;;;10.60;;
76667;SDS011;65585;51.166;16.922;2024-02-16T04:08:07;20.92;;;10.20;;
76667;SDS011;65585;51.166;16.922;2024-02-16T04:10:33;20.13;;;10.32;;
76667;SDS011;65585;51.166;16.922;2024-02-16T04:13:01;19.45;;;10.48;;
76667;SDS011;65585;51.166;16.922;2024-02-16T04:15:28;22.20;;;10.15;;
76667;SDS011;65585;51.166;16.922;2024-02-16T04:17:54;18.75;;;10.60;;
76667;SDS011;65585;51.166;16.922;2024-02-16T04:20:20;17.58;;;10.25;;
76667;SDS011;65585;51.166;16.922;2024-02-16T04:22:46;17.45;;;10.35;;
76667;SDS011;65585;51.166;16.922;2024-02-16T04:25:12;20.42;;;10.65;;
76667;SDS011;65585;51.166;16.922;2024-02-16T04:27:38;16.95;;;9.48;;
76667;SDS011;65585;51.166;16.922;2024-02-16T04:30:05;16.05;;;9.57;;
76667;SDS011;65585;51.166;16.922;2024-02-16T04:32:31;16.63;;;9.52;;
76667;SDS011;65585;51.166;16.922;2024-02-16T04:34:58;18.05;;;9.38;;
76667;SDS011;65585;51.166;16.922;2024-02-16T04:37:27;15.73;;;8.23;;
76667;SDS011;65585;51.166;16.922;2024-02-16T04:39:53;21.10;;;10.07;;
76667;SDS011;65585;51.166;16.922;2024-02-16T04:42:19;18.30;;;9.65;;
76667;SDS011;65585;51.166;16.922;2024-02-16T04:44:45;19.45;;;9.85;;
76667;SDS011;65585;51.166;16.922;2024-02-16T04:47:12;21.90;;;10.88;;
76667;SDS011;65585;51.166;16.922;2024-02-16T04:49:39;22.50;;;10.77;;
76667;SDS011;65585;51.166;16.922;2024-02-16T04:52:05;15.48;;;9.82;;
76667;SDS011;65585;51.166;16.922;2024-02-16T04:54:31;17.52;;;10.73;;
76667;SDS011;65585;51.166;16.922;2024-02-16T04:56:57;17.55;;;9.93;;
76667;SDS011;65585;51.166;16.922;2024-02-16T04:59:24;19.15;;;10.27;;
76667;SDS011;65585;51.166;16.922;2024-02-16T05:01:50;18.17;;;10.45;;
76667;SDS011;65585;51.166;16.922;2024-02-16T05:04:17;17.38;;;9.77;;
76667;SDS011;65585;51.166;16.922;2024-02-16T05:06:43;19.73;;;10.27;;
76667;SDS011;65585;51.166;16.922;2024-02-16T05:09:12;18.83;;;10.93;;
76667;SDS011;65585;51.166;16.922;2024-02-16T05:11:42;23.27;;;11.80;;
76667;SDS011;65585;51.166;16.922;2024-02-16T05:14:10;21.02;;;11.75;;
76667;SDS011;65585;51.166;16.922;2024-02-16T05:16:37;23.10;;;12.57;;
76667;SDS011;65585;51.166;16.922;2024-02-16T05:19:06;27.00;;;14.02;;
76667;SDS011;65585;51.166;16.922;2024-02-16T05:21:32;27.48;;;13.88;;
76667;SDS011;65585;51.166;16.922;2024-02-16T05:23:58;29.38;;;13.10;;
76667;SDS011;65585;51.166;16.922;2024-02-16T05:26:24;28.08;;;13.65;;
76667;SDS011;65585;51.166;16.922;2024-02-16T05:28:50;30.92;;;15.40;;
76667;SDS011;65585;51.166;16.922;2024-02-16T05:31:16;26.27;;;15.02;;
76667;SDS011;65585;51.166;16.922;2024-02-16T05:33:44;29.33;;;14.80;;
76667;SDS011;65585;51.166;16.922;2024-02-16T05:36:12;31.58;;;15.82;;
76667;SDS011;65585;51.166;16.922;2024-02-16T05:38:49;30.45;;;14.95;;
76667;SDS011;65585;51.166;16.922;2024-02-16T05:41:18;36.05;;;15.70;;
76667;SDS011;65585;51.166;16.922;2024-02-16T05:43:44;32.40;;;17.17;;
76667;SDS011;65585;51.166;16.922;2024-02-16T05:46:13;31.92;;;15.75;;
76667;SDS011;65585;51.166;16.922;2024-02-16T05:48:43;33.58;;;17.08;;
76667;SDS011;65585;51.166;16.922;2024-02-16T05:51:10;32.92;;;17.23;;
76667;SDS011;65585;51.166;16.922;2024-02-16T05:56:05;32.90;;;16.05;;
76667;SDS011;65585;51.166;16.922;2024-02-16T05:58:31;30.15;;;16.58;;
76667;SDS011;65585;51.166;16.922;2024-02-16T06:00:57;34.17;;;17.73;;
76667;SDS011;65585;51.166;16.922;2024-02-16T06:03:24;40.25;;;19.05;;
76667;SDS011;65585;51.166;16.922;2024-02-16T06:05:53;39.03;;;19.42;;
76667;SDS011;65585;51.166;16.922;2024-02-16T06:08:19;38.00;;;19.70;;
76667;SDS011;65585;51.166;16.922;2024-02-16T06:10:45;36.55;;;17.80;;
76667;SDS011;65585;51.166;16.922;2024-02-16T06:13:17;44.25;;;19.80;;
76667;SDS011;65585;51.166;16.922;2024-02-16T06:18:11;35.63;;;18.20;;
76667;SDS011;65585;51.166;16.922;2024-02-16T06:20:37;33.22;;;18.85;;
76667;SDS011;65585;51.166;16.922;2024-02-16T06:23:03;37.83;;;18.80;;
76667;SDS011;65585;51.166;16.922;2024-02-16T06:25:29;41.33;;;20.02;;
76667;SDS011;65585;51.166;16.922;2024-02-16T06:27:56;37.22;;;20.17;;
76667;SDS011;65585;51.166;16.922;2024-02-16T06:30:23;40.88;;;20.02;;
76667;SDS011;65585;51.166;16.922;2024-02-16T06:32:49;42.63;;;19.40;;
76667;SDS011;65585;51.166;16.922;2024-02-16T06:35:15;46.05;;;20.60;;
76667;SDS011;65585;51.166;16.922;2024-02-16T06:37:41;44.20;;;19.10;;
76667;SDS011;65585;51.166;16.922;2024-02-16T06:40:07;42.35;;;19.67;;
76667;SDS011;65585;51.166;16.922;2024-02-16T06:42:36;40.97;;;18.73;;
76667;SDS011;65585;51.166;16.922;2024-02-16T06:45:02;36.45;;;18.98;;
76667;SDS011;65585;51.166;16.922;2024-02-16T06:47:33;43.38;;;19.58;;
76667;SDS011;65585;51.166;16.922;2024-02-16T06:49:59;42.35;;;19.88;;
76667;SDS011;65585;51.166;16.922;2024-02-16T06:52:26;38.83;;;17.77;;
76667;SDS011;65585;51.166;16.922;2024-02-16T06:54:52;39.90;;;16.92;;
76667;SDS011;65585;51.166;16.922;2024-02-16T06:57:19;31.75;;;16.48;;
76667;SDS011;65585;51.166;16.922;2024-02-16T06:59:46;36.45;;;17.75;;
76667;SDS011;65585;51.166;16.922;2024-02-16T07:02:12;30.67;;;15.35;;
76667;SDS011;65585;51.166;16.922;2024-02-16T07:04:40;33.13;;;15.73;;
76667;SDS011;65585;51.166;16.922;2024-02-16T07:07:07;32.72;;;15.20;;
76667;SDS011;65585;51.166;16.922;2024-02-16T07:09:33;35.30;;;16.00;;
76667;SDS011;65585;51.166;16.922;2024-02-16T07:11:59;35.22;;;15.68;;
76667;SDS011;65585;51.166;16.922;2024-02-16T07:14:25;35.65;;;16.42;;
76667;SDS011;65585;51.166;16.922;2024-02-16T07:16:52;37.30;;;18.33;;
76667;SDS011;65585;51.166;16.922;2024-02-16T07:19:18;34.33;;;17.23;;
76667;SDS011;65585;51.166;16.922;2024-02-16T07:21:44;32.25;;;16.63;;
76667;SDS011;65585;51.166;16.922;2024-02-16T07:24:10;37.05;;;18.25;;
76667;SDS011;65585;51.166;16.922;2024-02-16T07:26:36;35.67;;;17.30;;
76667;SDS011;65585;51.166;16.922;2024-02-16T07:29:02;33.70;;;15.93;;
76667;SDS011;65585;51.166;16.922;2024-02-16T07:31:34;33.75;;;17.55;;
76667;SDS011;65585;51.166;16.922;2024-02-16T07:34:02;33.33;;;16.90;;
76667;SDS011;65585;51.166;16.922;2024-02-16T07:36:28;31.80;;;15.93;;
76667;SDS011;65585;51.166;16.922;2024-02-16T07:38:54;29.83;;;17.00;;
76667;SDS011;65585;51.166;16.922;2024-02-16T07:41:20;31.90;;;15.63;;
76667;SDS011;65585;51.166;16.922;2024-02-16T07:43:46;26.52;;;14.02;;
76667;SDS011;65585;51.166;16.922;2024-02-16T07:46:13;24.20;;;14.02;;
76667;SDS011;65585;51.166;16.922;2024-02-16T07:48:39;22.75;;;13.60;;
76667;SDS011;65585;51.166;16.922;2024-02-16T07:51:06;25.63;;;12.57;;
76667;SDS011;65585;51.166;16.922;2024-02-16T07:53:33;20.30;;;12.60;;
76667;SDS011;65585;51.166;16.922;2024-02-16T07:56:00;25.42;;;12.55;;
76667;SDS011;65585;51.166;16.922;2024-02-16T07:58:26;20.02;;;11.90;;
76667;SDS011;65585;51.166;16.922;2024-02-16T08:00:52;15.55;;;10.23;;
76667;SDS011;65585;51.166;16.922;2024-02-16T08:03:19;16.00;;;10.20;;
76667;SDS011;65585;51.166;16.922;2024-02-16T08:05:46;14.48;;;9.25;;
76667;SDS011;65585;51.166;16.922;2024-02-16T08:08:11;14.45;;;9.98;;
76667;SDS011;65585;51.166;16.922;2024-02-16T08:10:38;13.13;;;9.20;;
76667;SDS011;65585;51.166;16.922;2024-02-16T08:13:03;13.43;;;8.65;;
76667;SDS011;65585;51.166;16.922;2024-02-16T08:15:30;16.88;;;8.50;;
76667;SDS011;65585;51.166;16.922;2024-02-16T08:17:56;12.77;;;7.60;;
76667;SDS011;65585;51.166;16.922;2024-02-16T08:20:22;14.32;;;7.43;;
76667;SDS011;65585;51.166;16.922;2024-02-16T08:22:49;13.27;;;7.50;;
76667;SDS011;65585;51.166;16.922;2024-02-16T08:25:15;13.43;;;7.20;;
76667;SDS011;65585;51.166;16.922;2024-02-16T08:27:41;11.15;;;7.03;;
76667;SDS011;65585;51.166;16.922;2024-02-16T08:30:07;13.27;;;7.25;;
76667;SDS011;65585;51.166;16.922;2024-02-16T08:32:34;12.20;;;7.55;;
76667;SDS011;65585;51.166;16.922;2024-02-16T08:35:00;10.15;;;6.80;;
76667;SDS011;65585;51.166;16.922;2024-02-16T08:37:26;10.98;;;7.10;;
76667;SDS011;65585;51.166;16.922;2024-02-16T08:39:52;16.13;;;6.30;;
76667;SDS011;65585;51.166;16.922;2024-02-16T08:42:19;9.13;;;6.28;;
76667;SDS011;65585;51.166;16.922;2024-02-16T08:44:48;13.38;;;5.78;;
76667;SDS011;65585;51.166;16.922;2024-02-16T08:47:15;11.88;;;6.15;;
76667;SDS011;65585;51.166;16.922;2024-02-16T08:49:41;8.73;;;5.90;;
76667;SDS011;65585;51.166;16.922;2024-02-16T08:52:08;9.00;;;6.03;;
76667;SDS011;65585;51.166;16.922;2024-02-16T08:54:35;12.23;;;6.13;;
76667;SDS011;65585;51.166;16.922;2024-02-16T08:57:02;8.82;;;5.50;;
76667;SDS011;65585;51.166;16.922;2024-02-16T08:59:29;10.05;;;5.65;;
76667;SDS011;65585;51.166;16.922;2024-02-16T09:01:55;9.68;;;5.97;;
76667;SDS011;65585;51.166;16.922;2024-02-16T09:04:21;9.00;;;5.70;;
76667;SDS011;65585;51.166;16.922;2024-02-16T09:06:47;9.00;;;5.57;;
76667;SDS011;65585;51.166;16.922;2024-02-16T09:09:14;7.97;;;5.40;;
76667;SDS011;65585;51.166;16.922;2024-02-16T09:11:40;8.30;;;5.95;;
76667;SDS011;65585;51.166;16.922;2024-02-16T09:14:07;9.43;;;5.18;;
76667;SDS011;65585;51.166;16.922;2024-02-16T09:16:32;7.85;;;5.47;;
76667;SDS011;65585;51.166;16.922;2024-02-16T09:18:59;7.80;;;5.10;;
76667;SDS011;65585;51.166;16.922;2024-02-16T09:21:24;8.55;;;5.15;;
76667;SDS011;65585;51.166;16.922;2024-02-16T09:23:54;7.70;;;4.95;;
76667;SDS011;65585;51.166;16.922;2024-02-16T09:26:24;8.07;;;5.00;;
76667;SDS011;65585;51.166;16.922;2024-02-16T09:28:52;7.22;;;4.78;;
76667;SDS011;65585;51.166;16.922;2024-02-16T09:31:18;5.90;;;4.30;;
76667;SDS011;65585;51.166;16.922;2024-02-16T09:33:44;7.53;;;4.55;;
76667;SDS011;65585;51.166;16.922;2024-02-16T09:36:10;7.22;;;4.10;;
76667;SDS011;65585;51.166;16.922;2024-02-16T09:38:36;8.60;;;4.60;;
76667;SDS011;65585;51.166;16.922;2024-02-16T09:41:02;6.45;;;4.55;;
76667;SDS011;65585;51.166;16.922;2024-02-16T09:43:29;5.15;;;4.45;;
76667;SDS011;65585;51.166;16.922;2024-02-16T09:45:56;6.10;;;4.68;;
76667;SDS011;65585;51.166;16.922;2024-02-16T09:48:25;7.32;;;4.60;;
76667;SDS011;65585;51.166;16.922;2024-02-16T09:50:55;10.55;;;4.60;;
76667;SDS011;65585;51.166;16.922;2024-02-16T09:53:24;7.90;;;4.93;;
76667;SDS011;65585;51.166;16.922;2024-02-16T09:55:51;7.60;;;4.88;;
76667;SDS011;65585;51.166;16.922;2024-02-16T09:58:18;9.35;;;5.55;;
76667;SDS011;65585;51.166;16.922;2024-02-16T10:00:51;10.57;;;5.57;;
76667;SDS011;65585;51.166;16.922;2024-02-16T10:03:28;6.07;;;4.03;;
76667;SDS011;65585;51.166;16.922;2024-02-16T10:06:05;6.65;;;4.22;;
76667;SDS011;65585;51.166;16.922;2024-02-16T10:08:33;5.88;;;4.30;;
76667;SDS011;65585;51.166;16.922;2024-02-16T10:11:00;9.18;;;4.18;;
76667;SDS011;65585;51.166;16.922;2024-02-16T10:13:28;6.95;;;4.47;;
76667;SDS011;65585;51.166;16.922;2024-02-16T10:16:03;8.25;;;4.53;;
76667;SDS011;65585;51.166;16.922;2024-02-16T10:18:30;5.35;;;3.97;;
76667;SDS011;65585;51.166;16.922;2024-02-16T10:20:56;5.32;;;4.00;;
76667;SDS011;65585;51.166;16.922;2024-02-16T10:23:23;5.40;;;4.20;;
76667;SDS011;65585;51.166;16.922;2024-02-16T10:25:48;6.30;;;4.20;;
76667;SDS011;65585;51.166;16.922;2024-02-16T10:28:14;7.65;;;4.53;;
76667;SDS011;65585;51.166;16.922;2024-02-16T10:30:43;5.55;;;4.10;;
76667;SDS011;65585;51.166;16.922;2024-02-16T10:33:10;7.60;;;4.75;;
76667;SDS011;65585;51.166;16.922;2024-02-16T10:35:38;7.70;;;4.40;;
76667;SDS011;65585;51.166;16.922;2024-02-16T10:38:06;6.70;;;4.25;;
76667;SDS011;65585;51.166;16.922;2024-02-16T10:40:39;6.10;;;3.70;;
76667;SDS011;65585;51.166;16.922;2024-02-16T10:43:06;10.75;;;4.50;;
76667;SDS011;65585;51.166;16.922;2024-02-16T10:45:39;6.13;;;3.92;;
76667;SDS011;65585;51.166;16.922;2024-02-16T10:48:07;4.97;;;3.60;;
76667;SDS011;65585;51.166;16.922;2024-02-16T10:50:33;8.25;;;5.50;;
76667;SDS011;65585;51.166;16.922;2024-02-16T10:53:04;7.80;;;4.32;;
76667;SDS011;65585;51.166;16.922;2024-02-16T10:55:43;7.47;;;3.90;;
76667;SDS011;65585;51.166;16.922;2024-02-16T10:58:13;5.38;;;4.13;;
76667;SDS011;65585;51.166;16.922;2024-02-16T11:03:17;6.70;;;3.80;;
76667;SDS011;65585;51.166;16.922;2024-02-16T11:05:43;7.32;;;4.47;;
76667;SDS011;65585;51.166;16.922;2024-02-16T11:08:13;6.38;;;4.03;;
76667;SDS011;65585;51.166;16.922;2024-02-16T11:10:56;5.38;;;3.67;;
76667;SDS011;65585;51.166;16.922;2024-02-16T11:13:23;5.53;;;3.83;;
76667;SDS011;65585;51.166;16.922;2024-02-16T11:16:08;6.72;;;3.72;;
76667;SDS011;65585;51.166;16.922;2024-02-16T11:18:38;6.90;;;3.38;;
76667;SDS011;65585;51.166;16.922;2024-02-16T11:21:05;5.50;;;3.40;;
76667;SDS011;65585;51.166;16.922;2024-02-16T11:23:35;5.82;;;3.55;;
76667;SDS011;65585;51.166;16.922;2024-02-16T11:26:05;5.53;;;3.58;;
76667;SDS011;65585;51.166;16.922;2024-02-16T11:28:37;5.28;;;3.47;;
76667;SDS011;65585;51.166;16.922;2024-02-16T11:31:06;5.47;;;3.50;;
76667;SDS011;65585;51.166;16.922;2024-02-16T11:33:33;11.07;;;4.10;;
76667;SDS011;65585;51.166;16.922;2024-02-16T11:36:00;5.32;;;3.55;;
76667;SDS011;65585;51.166;16.922;2024-02-16T11:40:54;6.20;;;3.80;;
76667;SDS011;65585;51.166;16.922;2024-02-16T11:43:22;5.25;;;3.47;;
76667;SDS011;65585;51.166;16.922;2024-02-16T11:45:50;6.18;;;3.50;;
76667;SDS011;65585;51.166;16.922;2024-02-16T11:48:21;6.72;;;4.05;;
76667;SDS011;65585;51.166;16.922;2024-02-16T11:51:00;7.50;;;3.92;;
76667;SDS011;65585;51.166;16.922;2024-02-16T11:53:30;6.28;;;3.72;;
76667;SDS011;65585;51.166;16.922;2024-02-16T11:55:57;4.80;;;3.17;;
76667;SDS011;65585;51.166;16.922;2024-02-16T11:58:23;8.07;;;4.00;;
76667;SDS011;65585;51.166;16.922;2024-02-16T12:00:50;5.47;;;3.80;;
76667;SDS011;65585;51.166;16.922;2024-02-16T12:03:20;4.63;;;3.35;;
76667;SDS011;65585;51.166;16.922;2024-02-16T12:05:54;5.25;;;3.22;;
76667;SDS011;65585;51.166;16.922;2024-02-16T12:08:31;5.22;;;3.78;;
76667;SDS011;65585;51.166;16.922;2024-02-16T12:10:58;5.47;;;3.25;;
76667;SDS011;65585;51.166;16.922;2024-02-16T12:13:25;6.45;;;3.60;;
76667;SDS011;65585;51.166;16.922;2024-02-16T12:15:51;5.13;;;3.70;;
76667;SDS011;65585;51.166;16.922;2024-02-16T12:18:21;10.27;;;3.50;;
76667;SDS011;65585;51.166;16.922;2024-02-16T12:21:00;6.22;;;3.67;;
76667;SDS011;65585;51.166;16.922;2024-02-16T12:23:35;6.63;;;3.25;;
76667;SDS011;65585;51.166;16.922;2024-02-16T12:26:02;4.43;;;3.60;;
76667;SDS011;65585;51.166;16.922;2024-02-16T12:28:29;6.45;;;3.40;;
76667;SDS011;65585;51.166;16.922;2024-02-16T12:30:58;6.10;;;3.60;;
76667;SDS011;65585;51.166;16.922;2024-02-16T12:33:24;6.65;;;3.53;;
76667;SDS011;65585;51.166;16.922;2024-02-16T12:35:51;5.10;;;3.90;;
76667;SDS011;65585;51.166;16.922;2024-02-16T12:38:17;7.40;;;3.70;;
76667;SDS011;65585;51.166;16.922;2024-02-16T12:40:45;6.82;;;3.90;;
76667;SDS011;65585;51.166;16.922;2024-02-16T12:43:12;6.32;;;3.75;;
76667;SDS011;65585;51.166;16.922;2024-02-16T12:45:39;4.47;;;3.13;;
76667;SDS011;65585;51.166;16.922;2024-02-16T12:48:06;5.10;;;3.03;;
76667;SDS011;65585;51.166;16.922;2024-02-16T12:50:32;7.43;;;3.60;;
76667;SDS011;65585;51.166;16.922;2024-02-16T12:52:58;7.95;;;3.80;;
76667;SDS011;65585;51.166;16.922;2024-02-16T12:55:24;6.03;;;3.72;;
76667;SDS011;65585;51.166;16.922;2024-02-16T12:57:51;6.85;;;4.00;;
76667;SDS011;65585;51.166;16.922;2024-02-16T13:00:17;4.47;;;3.42;;
76667;SDS011;65585;51.166;16.922;2024-02-16T13:02:43;6.55;;;3.70;;
76667;SDS011;65585;51.166;16.922;2024-02-16T13:05:09;9.63;;;4.00;;
76667;SDS011;65585;51.166;16.922;2024-02-16T13:07:37;6.40;;;3.90;;
76667;SDS011;65585;51.166;16.922;2024-02-16T13:10:09;4.93;;;3.45;;
76667;SDS011;65585;51.166;16.922;2024-02-16T13:12:36;5.32;;;3.80;;
76667;SDS011;65585;51.166;16.922;2024-02-16T13:15:03;6.80;;;3.95;;
76667;SDS011;65585;51.166;16.922;2024-02-16T13:17:32;6.10;;;3.63;;
76667;SDS011;65585;51.166;16.922;2024-02-16T13:19:58;8.00;;;4.28;;
76667;SDS011;65585;51.166;16.922;2024-02-16T13:25:07;6.43;;;3.92;;
76667;SDS011;65585;51.166;16.922;2024-02-16T13:27:34;7.05;;;4.03;;
76667;SDS011;65585;51.166;16.922;2024-02-16T13:30:11;8.25;;;5.07;;
76667;SDS011;65585;51.166;16.922;2024-02-16T13:32:37;8.60;;;4.57;;
76667;SDS011;65585;51.166;16.922;2024-02-16T13:35:05;8.45;;;4.97;;
76667;SDS011;65585;51.166;16.922;2024-02-16T13:39:58;7.90;;;4.45;;
76667;SDS011;65585;51.166;16.922;2024-02-16T13:42:27;9.98;;;5.32;;
76667;SDS011;65585;51.166;16.922;2024-02-16T13:44:54;7.75;;;4.22;;
76667;SDS011;65585;51.166;16.922;2024-02-16T13:47:20;7.10;;;4.13;;
76667;SDS011;65585;51.166;16.922;2024-02-16T13:49:47;7.82;;;4.68;;
76667;SDS011;65585;51.166;16.922;2024-02-16T13:52:14;7.47;;;4.65;;
76667;SDS011;65585;51.166;16.922;2024-02-16T13:54:42;8.27;;;4.35;;
76667;SDS011;65585;51.166;16.922;2024-02-16T13:57:10;6.95;;;4.43;;
76667;SDS011;65585;51.166;16.922;2024-02-16T13:59:36;9.88;;;4.65;;
76667;SDS011;65585;51.166;16.922;2024-02-16T14:02:02;6.90;;;4.07;;
76667;SDS011;65585;51.166;16.922;2024-02-16T14:04:28;6.00;;;3.60;;
76667;SDS011;65585;51.166;16.922;2024-02-16T14:06:55;8.52;;;4.20;;
76667;SDS011;65585;51.166;16.922;2024-02-16T14:09:20;8.52;;;4.10;;
76667;SDS011;65585;51.166;16.922;2024-02-16T14:11:47;7.03;;;4.30;;
76667;SDS011;65585;51.166;16.922;2024-02-16T14:14:12;7.80;;;4.07;;
76667;SDS011;65585;51.166;16.922;2024-02-16T14:16:39;7.65;;;3.80;;
76667;SDS011;65585;51.166;16.922;2024-02-16T14:19:06;8.23;;;4.40;;
76667;SDS011;65585;51.166;16.922;2024-02-16T14:21:32;7.80;;;4.38;;
76667;SDS011;65585;51.166;16.922;2024-02-16T14:23:58;7.20;;;4.70;;
76667;SDS011;65585;51.166;16.922;2024-02-16T14:26:24;8.15;;;4.53;;
76667;SDS011;65585;51.166;16.922;2024-02-16T14:28:50;8.57;;;4.40;;
76667;SDS011;65585;51.166;16.922;2024-02-16T14:31:16;9.15;;;5.25;;
76667;SDS011;65585;51.166;16.922;2024-02-16T14:33:46;13.85;;;7.90;;
76667;SDS011;65585;51.166;16.922;2024-02-16T14:38:38;6.85;;;4.30;;
76667;SDS011;65585;51.166;16.922;2024-02-16T14:41:05;9.48;;;5.07;;